sensor_id;sensor_type;location;lat;lon;timestamp;temperature;humidity
59007;DHT22;44792;52.760;6.726;2023-03-17T00:01:15;8.00;99.90
59007;DHT22;44792;52.760;6.726;2023-03-17T00:03:42;8.00;99.90
59007;DHT22;44792;52.760;6.726;2023-03-17T00:06:13;8.00;99.90
59007;DHT22;44792;52.760;6.726;2023-03-17T00:08:41;8.00;99.90
59007;DHT22;44792;52.760;6.726;2023-03-17T00:11:15;8.00;99.90
59007;DHT22;44792;52.760;6.726;2023-03-17T00:13:42;8.00;99.90
59007;DHT22;44792;52.760;6.726;2023-03-17T00:16:19;8.00;99.90
59007;DHT22;44792;52.760;6.726;2023-03-17T00:18:50;8.10;99.90
59007;DHT22;44792;52.760;6.726;2023-03-17T00:21:24;8.00;99.90
59007;DHT22;44792;52.760;6.726;2023-03-17T00:23:50;8.00;99.90
59007;DHT22;44792;52.760;6.726;2023-03-17T00:26:19;8.00;99.90
59007;DHT22;44792;52.760;6.726;2023-03-17T00:28:45;8.00;99.90
59007;DHT22;44792;52.760;6.726;2023-03-17T00:31:19;8.10;99.90
59007;DHT22;44792;52.760;6.726;2023-03-17T00:33:46;8.10;99.90
59007;DHT22;44792;52.760;6.726;2023-03-17T00:36:23;8.10;99.90
59007;DHT22;44792;52.760;6.726;2023-03-17T00:38:50;8.10;99.90
59007;DHT22;44792;52.760;6.726;2023-03-17T00:41:17;8.10;99.90
59007;DHT22;44792;52.760;6.726;2023-03-17T00:43:43;8.10;99.90
59007;DHT22;44792;52.760;6.726;2023-03-17T00:46:14;8.10;99.90
59007;DHT22;44792;52.760;6.726;2023-03-17T00:48:41;8.10;99.90
59007;DHT22;44792;52.760;6.726;2023-03-17T00:51:08;8.10;99.90
59007;DHT22;44792;52.760;6.726;2023-03-17T00:53:34;8.10;99.90
59007;DHT22;44792;52.760;6.726;2023-03-17T00:56:01;8.10;99.90
59007;DHT22;44792;52.760;6.726;2023-03-17T01:00:54;8.10;99.90
59007;DHT22;44792;52.760;6.726;2023-03-17T01:03:20;8.10;99.90
59007;DHT22;44792;52.760;6.726;2023-03-17T01:05:47;8.10;99.90
59007;DHT22;44792;52.760;6.726;2023-03-17T01:08:13;8.10;99.90
59007;DHT22;44792;52.760;6.726;2023-03-17T01:10:39;8.10;99.90
59007;DHT22;44792;52.760;6.726;2023-03-17T01:13:05;8.10;99.90
59007;DHT22;44792;52.760;6.726;2023-03-17T01:15:32;8.00;99.90
59007;DHT22;44792;52.760;6.726;2023-03-17T01:17:59;8.00;99.90
59007;DHT22;44792;52.760;6.726;2023-03-17T01:20:29;8.10;99.90
59007;DHT22;44792;52.760;6.726;2023-03-17T01:22:55;8.00;99.90
59007;DHT22;44792;52.760;6.726;2023-03-17T01:25:22;8.10;99.90
59007;DHT22;44792;52.760;6.726;2023-03-17T01:27:48;8.00;99.90
59007;DHT22;44792;52.760;6.726;2023-03-17T01:30:22;8.10;99.90
59007;DHT22;44792;52.760;6.726;2023-03-17T01:32:48;8.10;99.90
59007;DHT22;44792;52.760;6.726;2023-03-17T01:35:14;8.10;99.90
59007;DHT22;44792;52.760;6.726;2023-03-17T01:37:40;8.10;99.90
59007;DHT22;44792;52.760;6.726;2023-03-17T01:40:07;8.10;99.90
59007;DHT22;44792;52.760;6.726;2023-03-17T01:42:37;8.00;99.90
59007;DHT22;44792;52.760;6.726;2023-03-17T01:48:08;8.00;99.90
59007;DHT22;44792;52.760;6.726;2023-03-17T01:50:33;8.00;99.90
59007;DHT22;44792;52.760;6.726;2023-03-17T01:52:59;8.10;99.90
59007;DHT22;44792;52.760;6.726;2023-03-17T01:55:25;8.10;99.90
59007;DHT22;44792;52.760;6.726;2023-03-17T01:57:52;8.00;99.90
59007;DHT22;44792;52.760;6.726;2023-03-17T02:00:20;8.00;99.90
59007;DHT22;44792;52.760;6.726;2023-03-17T02:02:52;8.00;99.90
59007;DHT22;44792;52.760;6.726;2023-03-17T02:05:23;8.00;99.90
59007;DHT22;44792;52.760;6.726;2023-03-17T02:07:51;8.00;99.90
59007;DHT22;44792;52.760;6.726;2023-03-17T02:10:18;8.00;99.90
59007;DHT22;44792;52.760;6.726;2023-03-17T02:12:49;8.00;99.90
59007;DHT22;44792;52.760;6.726;2023-03-17T02:15:15;8.00;99.90
59007;DHT22;44792;52.760;6.726;2023-03-17T02:17:41;8.00;99.90
59007;DHT22;44792;52.760;6.726;2023-03-17T02:22:54;8.00;99.90
59007;DHT22;44792;52.760;6.726;2023-03-17T02:25:23;8.00;99.90
59007;DHT22;44792;52.760;6.726;2023-03-17T02:27:51;8.00;99.90
59007;DHT22;44792;52.760;6.726;2023-03-17T02:30:20;8.10;99.90
59007;DHT22;44792;52.760;6.726;2023-03-17T02:32:47;8.00;99.90
59007;DHT22;44792;52.760;6.726;2023-03-17T02:35:12;8.00;99.90
59007;DHT22;44792;52.760;6.726;2023-03-17T02:37:38;8.00;99.90
59007;DHT22;44792;52.760;6.726;2023-03-17T02:40:05;8.00;99.90
59007;DHT22;44792;52.760;6.726;2023-03-17T02:42:32;8.00;99.90
59007;DHT22;44792;52.760;6.726;2023-03-17T02:44:58;8.00;99.90
59007;DHT22;44792;52.760;6.726;2023-03-17T02:47:25;8.00;99.90
59007;DHT22;44792;52.760;6.726;2023-03-17T02:49:52;8.00;99.90
59007;DHT22;44792;52.760;6.726;2023-03-17T02:52:18;8.00;99.90
59007;DHT22;44792;52.760;6.726;2023-03-17T02:54:44;7.90;99.90
59007;DHT22;44792;52.760;6.726;2023-03-17T02:57:09;8.00;99.90
59007;DHT22;44792;52.760;6.726;2023-03-17T02:59:35;7.90;99.90
59007;DHT22;44792;52.760;6.726;2023-03-17T03:02:01;7.80;99.90
59007;DHT22;44792;52.760;6.726;2023-03-17T03:04:27;7.60;99.90
59007;DHT22;44792;52.760;6.726;2023-03-17T03:06:53;7.60;99.90
59007;DHT22;44792;52.760;6.726;2023-03-17T03:09:19;7.60;99.90
59007;DHT22;44792;52.760;6.726;2023-03-17T03:11:46;7.50;99.90
59007;DHT22;44792;52.760;6.726;2023-03-17T03:14:12;7.40;99.90
59007;DHT22;44792;52.760;6.726;2023-03-17T03:16:38;7.40;99.90
59007;DHT22;44792;52.760;6.726;2023-03-17T03:19:05;7.30;99.90
59007;DHT22;44792;52.760;6.726;2023-03-17T03:21:31;7.20;99.90
59007;DHT22;44792;52.760;6.726;2023-03-17T03:23:57;7.20;99.90
59007;DHT22;44792;52.760;6.726;2023-03-17T03:26:22;7.20;99.90
59007;DHT22;44792;52.760;6.726;2023-03-17T03:28:48;7.10;99.90
59007;DHT22;44792;52.760;6.726;2023-03-17T03:31:14;7.10;99.90
59007;DHT22;44792;52.760;6.726;2023-03-17T03:33:41;7.00;99.90
59007;DHT22;44792;52.760;6.726;2023-03-17T03:36:07;7.00;99.90
59007;DHT22;44792;52.760;6.726;2023-03-17T03:38:34;7.00;99.90
59007;DHT22;44792;52.760;6.726;2023-03-17T03:41:00;7.00;99.90
59007;DHT22;44792;52.760;6.726;2023-03-17T03:43:26;6.90;99.90
59007;DHT22;44792;52.760;6.726;2023-03-17T03:45:52;7.00;99.90
59007;DHT22;44792;52.760;6.726;2023-03-17T03:48:20;7.00;99.90
59007;DHT22;44792;52.760;6.726;2023-03-17T03:50:46;6.90;99.90
59007;DHT22;44792;52.760;6.726;2023-03-17T03:53:12;6.90;99.90
59007;DHT22;44792;52.760;6.726;2023-03-17T03:55:38;7.00;99.90
59007;DHT22;44792;52.760;6.726;2023-03-17T03:58:04;7.00;99.90
59007;DHT22;44792;52.760;6.726;2023-03-17T04:00:29;7.00;99.90
59007;DHT22;44792;52.760;6.726;2023-03-17T04:02:55;7.00;99.90
59007;DHT22;44792;52.760;6.726;2023-03-17T04:05:20;7.10;99.90
59007;DHT22;44792;52.760;6.726;2023-03-17T04:07:46;7.10;99.90
59007;DHT22;44792;52.760;6.726;2023-03-17T04:10:14;7.30;99.90
59007;DHT22;44792;52.760;6.726;2023-03-17T04:12:41;7.30;99.90
59007;DHT22;44792;52.760;6.726;2023-03-17T04:15:08;7.40;99.90
59007;DHT22;44792;52.760;6.726;2023-03-17T04:17:34;7.50;99.90
59007;DHT22;44792;52.760;6.726;2023-03-17T04:20:00;7.50;99.90
59007;DHT22;44792;52.760;6.726;2023-03-17T04:22:27;7.50;99.90
59007;DHT22;44792;52.760;6.726;2023-03-17T04:24:52;7.60;99.90
59007;DHT22;44792;52.760;6.726;2023-03-17T04:27:18;7.60;99.90
59007;DHT22;44792;52.760;6.726;2023-03-17T04:29:43;7.60;99.90
59007;DHT22;44792;52.760;6.726;2023-03-17T04:32:13;7.70;99.90
59007;DHT22;44792;52.760;6.726;2023-03-17T04:34:39;7.70;99.90
59007;DHT22;44792;52.760;6.726;2023-03-17T04:37:06;7.70;99.90
59007;DHT22;44792;52.760;6.726;2023-03-17T04:39:32;7.70;99.90
59007;DHT22;44792;52.760;6.726;2023-03-17T04:41:58;7.70;99.90
59007;DHT22;44792;52.760;6.726;2023-03-17T04:44:23;7.70;99.90
59007;DHT22;44792;52.760;6.726;2023-03-17T04:46:49;7.70;99.90
59007;DHT22;44792;52.760;6.726;2023-03-17T04:49:15;7.70;99.90
59007;DHT22;44792;52.760;6.726;2023-03-17T04:51:40;7.70;99.90
59007;DHT22;44792;52.760;6.726;2023-03-17T04:54:06;7.70;99.90
59007;DHT22;44792;52.760;6.726;2023-03-17T04:56:33;7.70;99.90
59007;DHT22;44792;52.760;6.726;2023-03-17T04:58:58;7.70;99.90
59007;DHT22;44792;52.760;6.726;2023-03-17T05:01:24;7.70;99.90
59007;DHT22;44792;52.760;6.726;2023-03-17T05:03:50;7.70;99.90
59007;DHT22;44792;52.760;6.726;2023-03-17T05:06:16;7.80;99.90
59007;DHT22;44792;52.760;6.726;2023-03-17T05:08:42;7.70;99.90
59007;DHT22;44792;52.760;6.726;2023-03-17T05:11:09;7.70;99.90
59007;DHT22;44792;52.760;6.726;2023-03-17T05:13:35;7.70;99.90
59007;DHT22;44792;52.760;6.726;2023-03-17T05:16:01;7.70;99.90
59007;DHT22;44792;52.760;6.726;2023-03-17T05:18:27;7.70;99.90
59007;DHT22;44792;52.760;6.726;2023-03-17T05:20:52;7.70;99.90
59007;DHT22;44792;52.760;6.726;2023-03-17T05:23:18;7.70;99.90
59007;DHT22;44792;52.760;6.726;2023-03-17T05:25:44;7.70;99.90
59007;DHT22;44792;52.760;6.726;2023-03-17T05:28:11;7.70;99.90
59007;DHT22;44792;52.760;6.726;2023-03-17T05:30:37;7.70;99.90
59007;DHT22;44792;52.760;6.726;2023-03-17T05:33:03;7.70;99.90
59007;DHT22;44792;52.760;6.726;2023-03-17T05:35:29;7.70;99.90
59007;DHT22;44792;52.760;6.726;2023-03-17T05:37:55;7.80;99.90
59007;DHT22;44792;52.760;6.726;2023-03-17T05:40:21;7.80;99.90
59007;DHT22;44792;52.760;6.726;2023-03-17T05:42:49;7.70;99.90
59007;DHT22;44792;52.760;6.726;2023-03-17T05:45:14;7.80;99.90
59007;DHT22;44792;52.760;6.726;2023-03-17T05:47:41;7.70;99.90
59007;DHT22;44792;52.760;6.726;2023-03-17T05:50:07;7.70;99.90
59007;DHT22;44792;52.760;6.726;2023-03-17T05:52:33;7.70;99.90
59007;DHT22;44792;52.760;6.726;2023-03-17T05:54:59;7.80;99.90
59007;DHT22;44792;52.760;6.726;2023-03-17T05:57:25;7.80;99.90
59007;DHT22;44792;52.760;6.726;2023-03-17T05:59:50;7.80;99.90
59007;DHT22;44792;52.760;6.726;2023-03-17T06:02:16;7.80;99.90
59007;DHT22;44792;52.760;6.726;2023-03-17T06:04:41;7.80;99.90
59007;DHT22;44792;52.760;6.726;2023-03-17T06:07:08;7.80;99.90
59007;DHT22;44792;52.760;6.726;2023-03-17T06:09:34;7.80;99.90
59007;DHT22;44792;52.760;6.726;2023-03-17T06:12:00;7.80;99.90
59007;DHT22;44792;52.760;6.726;2023-03-17T06:14:26;7.80;99.90
59007;DHT22;44792;52.760;6.726;2023-03-17T06:16:52;7.80;99.90
59007;DHT22;44792;52.760;6.726;2023-03-17T06:19:17;7.90;99.90
59007;DHT22;44792;52.760;6.726;2023-03-17T06:21:43;7.90;99.90
59007;DHT22;44792;52.760;6.726;2023-03-17T06:24:08;7.90;99.90
59007;DHT22;44792;52.760;6.726;2023-03-17T06:26:35;8.00;99.90
59007;DHT22;44792;52.760;6.726;2023-03-17T06:29:04;8.00;99.90
59007;DHT22;44792;52.760;6.726;2023-03-17T06:31:33;8.00;99.90
59007;DHT22;44792;52.760;6.726;2023-03-17T06:33:59;8.10;99.90
59007;DHT22;44792;52.760;6.726;2023-03-17T06:36:24;8.10;99.90
59007;DHT22;44792;52.760;6.726;2023-03-17T06:38:50;8.20;99.90
59007;DHT22;44792;52.760;6.726;2023-03-17T06:41:16;8.30;99.90
59007;DHT22;44792;52.760;6.726;2023-03-17T06:43:41;8.30;99.90
59007;DHT22;44792;52.760;6.726;2023-03-17T06:46:07;8.50;99.90
59007;DHT22;44792;52.760;6.726;2023-03-17T06:48:33;8.60;99.90
59007;DHT22;44792;52.760;6.726;2023-03-17T06:50:59;8.70;99.90
59007;DHT22;44792;52.760;6.726;2023-03-17T06:53:25;8.80;99.90
59007;DHT22;44792;52.760;6.726;2023-03-17T06:55:50;8.80;99.90
59007;DHT22;44792;52.760;6.726;2023-03-17T06:58:16;8.90;99.90
59007;DHT22;44792;52.760;6.726;2023-03-17T07:00:42;9.00;99.90
59007;DHT22;44792;52.760;6.726;2023-03-17T07:03:10;9.00;99.90
59007;DHT22;44792;52.760;6.726;2023-03-17T07:05:35;9.00;99.90
59007;DHT22;44792;52.760;6.726;2023-03-17T07:08:03;9.00;99.90
59007;DHT22;44792;52.760;6.726;2023-03-17T07:10:29;9.00;99.90
59007;DHT22;44792;52.760;6.726;2023-03-17T07:12:55;9.00;99.90
59007;DHT22;44792;52.760;6.726;2023-03-17T07:15:21;9.10;99.90
59007;DHT22;44792;52.760;6.726;2023-03-17T07:17:47;9.00;99.90
59007;DHT22;44792;52.760;6.726;2023-03-17T07:20:12;9.10;99.90
59007;DHT22;44792;52.760;6.726;2023-03-17T07:22:39;9.10;99.90
59007;DHT22;44792;52.760;6.726;2023-03-17T07:25:05;9.10;99.90
59007;DHT22;44792;52.760;6.726;2023-03-17T07:27:30;9.10;99.90
59007;DHT22;44792;52.760;6.726;2023-03-17T07:29:56;9.10;99.90
59007;DHT22;44792;52.760;6.726;2023-03-17T07:32:22;9.10;99.90
59007;DHT22;44792;52.760;6.726;2023-03-17T07:34:47;9.10;99.90
59007;DHT22;44792;52.760;6.726;2023-03-17T07:37:13;9.10;99.90
59007;DHT22;44792;52.760;6.726;2023-03-17T07:39:39;9.10;99.90
59007;DHT22;44792;52.760;6.726;2023-03-17T07:42:05;9.20;99.90
59007;DHT22;44792;52.760;6.726;2023-03-17T07:44:31;9.20;99.90
59007;DHT22;44792;52.760;6.726;2023-03-17T07:46:57;9.20;99.90
59007;DHT22;44792;52.760;6.726;2023-03-17T07:49:23;9.30;99.90
59007;DHT22;44792;52.760;6.726;2023-03-17T07:51:48;9.30;99.90
59007;DHT22;44792;52.760;6.726;2023-03-17T07:54:14;9.30;99.90
59007;DHT22;44792;52.760;6.726;2023-03-17T07:56:40;9.30;99.90
59007;DHT22;44792;52.760;6.726;2023-03-17T07:59:06;9.40;99.90
59007;DHT22;44792;52.760;6.726;2023-03-17T08:01:33;9.40;99.90
59007;DHT22;44792;52.760;6.726;2023-03-17T08:03:59;9.50;99.90
59007;DHT22;44792;52.760;6.726;2023-03-17T08:06:25;9.50;99.90
59007;DHT22;44792;52.760;6.726;2023-03-17T08:08:54;9.50;99.90
59007;DHT22;44792;52.760;6.726;2023-03-17T08:11:20;9.50;99.90
59007;DHT22;44792;52.760;6.726;2023-03-17T08:13:47;9.50;99.90
59007;DHT22;44792;52.760;6.726;2023-03-17T08:16:14;9.60;99.90
59007;DHT22;44792;52.760;6.726;2023-03-17T08:18:40;9.60;99.90
59007;DHT22;44792;52.760;6.726;2023-03-17T08:21:06;9.70;99.90
59007;DHT22;44792;52.760;6.726;2023-03-17T08:23:32;9.70;99.90
59007;DHT22;44792;52.760;6.726;2023-03-17T08:25:58;9.70;99.90
59007;DHT22;44792;52.760;6.726;2023-03-17T08:28:24;9.80;99.90
59007;DHT22;44792;52.760;6.726;2023-03-17T08:30:51;9.80;99.90
59007;DHT22;44792;52.760;6.726;2023-03-17T08:33:17;9.80;99.90
59007;DHT22;44792;52.760;6.726;2023-03-17T08:35:42;9.90;99.90
59007;DHT22;44792;52.760;6.726;2023-03-17T08:38:08;9.90;99.90
59007;DHT22;44792;52.760;6.726;2023-03-17T08:40:35;9.90;99.90
59007;DHT22;44792;52.760;6.726;2023-03-17T08:43:01;10.00;99.90
59007;DHT22;44792;52.760;6.726;2023-03-17T08:45:27;10.00;99.90
59007;DHT22;44792;52.760;6.726;2023-03-17T08:47:53;10.10;99.90
59007;DHT22;44792;52.760;6.726;2023-03-17T08:50:20;10.10;99.90
59007;DHT22;44792;52.760;6.726;2023-03-17T08:52:47;10.10;99.90
59007;DHT22;44792;52.760;6.726;2023-03-17T08:55:14;10.20;99.90
59007;DHT22;44792;52.760;6.726;2023-03-17T08:57:41;10.20;99.90
59007;DHT22;44792;52.760;6.726;2023-03-17T09:00:13;10.30;99.90
59007;DHT22;44792;52.760;6.726;2023-03-17T09:02:41;10.40;99.90
59007;DHT22;44792;52.760;6.726;2023-03-17T09:05:08;10.40;99.90
59007;DHT22;44792;52.760;6.726;2023-03-17T09:07:35;10.40;99.90
59007;DHT22;44792;52.760;6.726;2023-03-17T09:10:02;10.50;99.90
59007;DHT22;44792;52.760;6.726;2023-03-17T09:12:28;10.50;99.90
59007;DHT22;44792;52.760;6.726;2023-03-17T09:14:54;10.60;99.90
59007;DHT22;44792;52.760;6.726;2023-03-17T09:17:20;10.60;99.90
59007;DHT22;44792;52.760;6.726;2023-03-17T09:19:46;10.60;99.90
59007;DHT22;44792;52.760;6.726;2023-03-17T09:22:14;10.70;99.90
59007;DHT22;44792;52.760;6.726;2023-03-17T09:24:40;10.70;99.90
59007;DHT22;44792;52.760;6.726;2023-03-17T09:27:06;10.80;99.90
59007;DHT22;44792;52.760;6.726;2023-03-17T09:29:32;10.90;99.90
59007;DHT22;44792;52.760;6.726;2023-03-17T09:31:58;11.00;99.90
59007;DHT22;44792;52.760;6.726;2023-03-17T09:34:25;11.00;99.90
59007;DHT22;44792;52.760;6.726;2023-03-17T09:36:52;11.10;99.90
59007;DHT22;44792;52.760;6.726;2023-03-17T09:39:19;11.20;99.90
59007;DHT22;44792;52.760;6.726;2023-03-17T09:42:13;11.30;99.90
59007;DHT22;44792;52.760;6.726;2023-03-17T09:49:52;11.50;99.90
59007;DHT22;44792;52.760;6.726;2023-03-17T09:52:32;11.60;99.90
59007;DHT22;44792;52.760;6.726;2023-03-17T09:54:59;11.60;99.90
59007;DHT22;44792;52.760;6.726;2023-03-17T09:57:32;11.60;99.90
59007;DHT22;44792;52.760;6.726;2023-03-17T10:00:20;11.70;99.90
59007;DHT22;44792;52.760;6.726;2023-03-17T10:02:51;11.70;99.90
59007;DHT22;44792;52.760;6.726;2023-03-17T10:10:28;11.80;99.90
59007;DHT22;44792;52.760;6.726;2023-03-17T10:13:12;11.90;99.90
59007;DHT22;44792;52.760;6.726;2023-03-17T10:15:49;12.00;99.90
59007;DHT22;44792;52.760;6.726;2023-03-17T10:18:16;12.20;99.90
59007;DHT22;44792;52.760;6.726;2023-03-17T10:20:56;12.20;99.90
59007;DHT22;44792;52.760;6.726;2023-03-17T10:23:28;12.20;99.90
59007;DHT22;44792;52.760;6.726;2023-03-17T10:25:56;12.20;99.90
59007;DHT22;44792;52.760;6.726;2023-03-17T10:28:29;12.20;99.90
59007;DHT22;44792;52.760;6.726;2023-03-17T10:31:25;12.50;99.90
59007;DHT22;44792;52.760;6.726;2023-03-17T10:33:53;12.70;99.90
59007;DHT22;44792;52.760;6.726;2023-03-17T10:36:34;12.80;99.90
59007;DHT22;44792;52.760;6.726;2023-03-17T10:39:05;12.80;99.90
59007;DHT22;44792;52.760;6.726;2023-03-17T10:41:39;12.90;99.90
59007;DHT22;44792;52.760;6.726;2023-03-17T10:44:14;13.10;99.90
59007;DHT22;44792;52.760;6.726;2023-03-17T10:46:52;13.10;99.90
59007;DHT22;44792;52.760;6.726;2023-03-17T10:49:19;13.10;99.90
59007;DHT22;44792;52.760;6.726;2023-03-17T10:51:50;13.10;99.90
59007;DHT22;44792;52.760;6.726;2023-03-17T10:54:19;13.30;99.90
59007;DHT22;44792;52.760;6.726;2023-03-17T10:56:47;13.30;99.90
59007;DHT22;44792;52.760;6.726;2023-03-17T10:59:30;13.20;99.90
59007;DHT22;44792;52.760;6.726;2023-03-17T11:02:18;13.20;99.90
59007;DHT22;44792;52.760;6.726;2023-03-17T11:04:44;13.30;99.90
59007;DHT22;44792;52.760;6.726;2023-03-17T11:07:17;13.60;99.90
59007;DHT22;44792;52.760;6.726;2023-03-17T11:09:48;13.60;99.90
59007;DHT22;44792;52.760;6.726;2023-03-17T11:12:28;13.70;99.90
59007;DHT22;44792;52.760;6.726;2023-03-17T11:14:59;13.90;99.90
59007;DHT22;44792;52.760;6.726;2023-03-17T11:17:47;13.90;99.90
59007;DHT22;44792;52.760;6.726;2023-03-17T11:20:35;13.90;99.90
59007;DHT22;44792;52.760;6.726;2023-03-17T11:46:14;14.30;99.90
59007;DHT22;44792;52.760;6.726;2023-03-17T11:48:45;14.10;99.90
59007;DHT22;44792;52.760;6.726;2023-03-17T11:51:35;14.10;99.90
59007;DHT22;44792;52.760;6.726;2023-03-17T11:56:44;14.30;99.90
59007;DHT22;44792;52.760;6.726;2023-03-17T12:02:18;14.40;99.90
59007;DHT22;44792;52.760;6.726;2023-03-17T12:04:52;14.20;99.90
59007;DHT22;44792;52.760;6.726;2023-03-17T12:07:58;14.10;99.90
59007;DHT22;44792;52.760;6.726;2023-03-17T12:10:32;14.20;99.90
59007;DHT22;44792;52.760;6.726;2023-03-17T12:13:13;14.10;99.90
59007;DHT22;44792;52.760;6.726;2023-03-17T12:20:59;14.00;99.90
59007;DHT22;44792;52.760;6.726;2023-03-17T12:23:51;14.10;99.90
59007;DHT22;44792;52.760;6.726;2023-03-17T12:26:27;14.10;99.90
59007;DHT22;44792;52.760;6.726;2023-03-17T12:29:01;14.10;99.90
59007;DHT22;44792;52.760;6.726;2023-03-17T12:31:36;14.20;99.90
59007;DHT22;44792;52.760;6.726;2023-03-17T12:34:12;14.20;99.90
59007;DHT22;44792;52.760;6.726;2023-03-17T12:36:43;14.10;99.90
59007;DHT22;44792;52.760;6.726;2023-03-17T12:39:30;14.10;99.90
59007;DHT22;44792;52.760;6.726;2023-03-17T12:42:06;14.20;99.90
59007;DHT22;44792;52.760;6.726;2023-03-17T12:55:41;14.20;99.90
59007;DHT22;44792;52.760;6.726;2023-03-17T13:00:54;14.20;99.90
59007;DHT22;44792;52.760;6.726;2023-03-17T13:03:25;14.30;99.90
59007;DHT22;44792;52.760;6.726;2023-03-17T13:05:57;14.40;99.90
59007;DHT22;44792;52.760;6.726;2023-03-17T13:08:28;14.50;99.90
59007;DHT22;44792;52.760;6.726;2023-03-17T13:14:05;14.50;99.90
59007;DHT22;44792;52.760;6.726;2023-03-17T13:16:39;14.50;99.90
59007;DHT22;44792;52.760;6.726;2023-03-17T13:19:19;14.60;99.90
59007;DHT22;44792;52.760;6.726;2023-03-17T13:21:50;14.60;99.90
59007;DHT22;44792;52.760;6.726;2023-03-17T13:26:59;14.50;99.90
59007;DHT22;44792;52.760;6.726;2023-03-17T13:35:09;14.50;99.90
59007;DHT22;44792;52.760;6.726;2023-03-17T13:48:53;14.50;99.90
59007;DHT22;44792;52.760;6.726;2023-03-17T13:51:23;14.50;99.90
59007;DHT22;44792;52.760;6.726;2023-03-17T13:53:56;14.50;99.90
59007;DHT22;44792;52.760;6.726;2023-03-17T13:56:23;14.50;99.90
59007;DHT22;44792;52.760;6.726;2023-03-17T13:59:03;14.60;99.90
59007;DHT22;44792;52.760;6.726;2023-03-17T14:01:55;14.60;99.90
59007;DHT22;44792;52.760;6.726;2023-03-17T14:04:27;14.60;99.90
59007;DHT22;44792;52.760;6.726;2023-03-17T14:06:58;14.60;99.90
59007;DHT22;44792;52.760;6.726;2023-03-17T14:11:54;14.60;99.90
59007;DHT22;44792;52.760;6.726;2023-03-17T14:15:04;14.70;99.90
59007;DHT22;44792;52.760;6.726;2023-03-17T14:17:39;14.60;99.90
59007;DHT22;44792;52.760;6.726;2023-03-17T14:22:44;14.50;99.90
59007;DHT22;44792;52.760;6.726;2023-03-17T14:25:16;14.50;99.90
59007;DHT22;44792;52.760;6.726;2023-03-17T14:27:48;14.60;99.90
59007;DHT22;44792;52.760;6.726;2023-03-17T14:30:17;14.60;99.90
59007;DHT22;44792;52.760;6.726;2023-03-17T14:32:50;14.60;99.90
59007;DHT22;44792;52.760;6.726;2023-03-17T14:35:16;14.60;99.90
59007;DHT22;44792;52.760;6.726;2023-03-17T14:37:43;14.60;99.90
59007;DHT22;44792;52.760;6.726;2023-03-17T14:40:20;14.60;99.90
59007;DHT22;44792;52.760;6.726;2023-03-17T14:42:46;14.60;99.90
59007;DHT22;44792;52.760;6.726;2023-03-17T14:45:27;14.60;99.90
59007;DHT22;44792;52.760;6.726;2023-03-17T14:47:54;14.60;99.90
59007;DHT22;44792;52.760;6.726;2023-03-17T14:50:30;14.60;99.90
59007;DHT22;44792;52.760;6.726;2023-03-17T14:52:58;14.60;99.90
59007;DHT22;44792;52.760;6.726;2023-03-17T14:55:40;14.70;99.90
59007;DHT22;44792;52.760;6.726;2023-03-17T14:58:34;14.70;99.90
59007;DHT22;44792;52.760;6.726;2023-03-17T15:01:16;14.70;99.90
59007;DHT22;44792;52.760;6.726;2023-03-17T15:04:17;14.70;99.90
59007;DHT22;44792;52.760;6.726;2023-03-17T15:06:51;14.60;99.90
59007;DHT22;44792;52.760;6.726;2023-03-17T15:09:28;14.60;99.90
59007;DHT22;44792;52.760;6.726;2023-03-17T15:12:20;14.70;99.90
59007;DHT22;44792;52.760;6.726;2023-03-17T15:14:50;14.70;99.90
59007;DHT22;44792;52.760;6.726;2023-03-17T15:17:18;14.70;99.90
59007;DHT22;44792;52.760;6.726;2023-03-17T15:19:47;14.70;99.90
59007;DHT22;44792;52.760;6.726;2023-03-17T15:22:24;14.70;99.90
59007;DHT22;44792;52.760;6.726;2023-03-17T15:27:41;14.70;99.90
59007;DHT22;44792;52.760;6.726;2023-03-17T15:30:07;14.60;99.90
59007;DHT22;44792;52.760;6.726;2023-03-17T15:32:33;14.60;99.90
59007;DHT22;44792;52.760;6.726;2023-03-17T15:35:00;14.60;99.90
59007;DHT22;44792;52.760;6.726;2023-03-17T15:37:27;14.50;99.90
59007;DHT22;44792;52.760;6.726;2023-03-17T15:39:54;14.60;99.90
59007;DHT22;44792;52.760;6.726;2023-03-17T15:42:23;14.60;99.90
59007;DHT22;44792;52.760;6.726;2023-03-17T15:44:50;14.60;99.90
59007;DHT22;44792;52.760;6.726;2023-03-17T15:47:18;14.60;99.90
59007;DHT22;44792;52.760;6.726;2023-03-17T15:49:45;14.60;99.90
59007;DHT22;44792;52.760;6.726;2023-03-17T15:52:19;14.50;99.90
59007;DHT22;44792;52.760;6.726;2023-03-17T15:54:47;14.50;99.90
59007;DHT22;44792;52.760;6.726;2023-03-17T15:57:13;14.50;99.90
59007;DHT22;44792;52.760;6.726;2023-03-17T15:59:39;14.50;99.90
59007;DHT22;44792;52.760;6.726;2023-03-17T16:02:32;14.70;99.90
59007;DHT22;44792;52.760;6.726;2023-03-17T16:05:10;14.80;99.90
59007;DHT22;44792;52.760;6.726;2023-03-17T16:07:39;14.80;99.90
59007;DHT22;44792;52.760;6.726;2023-03-17T16:10:21;14.90;99.90
59007;DHT22;44792;52.760;6.726;2023-03-17T16:12:48;14.90;99.90
59007;DHT22;44792;52.760;6.726;2023-03-17T16:15:25;14.90;99.90
59007;DHT22;44792;52.760;6.726;2023-03-17T16:17:55;14.90;99.90
59007;DHT22;44792;52.760;6.726;2023-03-17T16:20:51;14.90;99.90
59007;DHT22;44792;52.760;6.726;2023-03-17T16:23:22;14.90;99.90
59007;DHT22;44792;52.760;6.726;2023-03-17T16:25:49;14.90;99.90
59007;DHT22;44792;52.760;6.726;2023-03-17T16:28:32;14.80;99.90
59007;DHT22;44792;52.760;6.726;2023-03-17T16:30:59;14.80;99.90
59007;DHT22;44792;52.760;6.726;2023-03-17T16:33:28;14.80;99.90
59007;DHT22;44792;52.760;6.726;2023-03-17T16:35:58;14.70;99.90
59007;DHT22;44792;52.760;6.726;2023-03-17T16:38:29;14.70;99.90
59007;DHT22;44792;52.760;6.726;2023-03-17T16:41:00;14.70;99.90
59007;DHT22;44792;52.760;6.726;2023-03-17T16:43:34;14.60;99.90
59007;DHT22;44792;52.760;6.726;2023-03-17T16:46:03;14.70;99.90
59007;DHT22;44792;52.760;6.726;2023-03-17T16:48:29;14.60;99.90
59007;DHT22;44792;52.760;6.726;2023-03-17T16:50:56;14.60;99.90
59007;DHT22;44792;52.760;6.726;2023-03-17T16:53:21;14.60;99.90
59007;DHT22;44792;52.760;6.726;2023-03-17T16:55:48;14.60;99.90
59007;DHT22;44792;52.760;6.726;2023-03-17T16:58:16;14.50;99.90
59007;DHT22;44792;52.760;6.726;2023-03-17T17:00:43;14.60;99.90
59007;DHT22;44792;52.760;6.726;2023-03-17T17:03:09;14.60;99.90
59007;DHT22;44792;52.760;6.726;2023-03-17T17:05:34;14.50;99.90
59007;DHT22;44792;52.760;6.726;2023-03-17T17:08:00;14.50;99.90
59007;DHT22;44792;52.760;6.726;2023-03-17T17:10:27;14.50;99.90
59007;DHT22;44792;52.760;6.726;2023-03-17T17:12:54;14.40;99.90
59007;DHT22;44792;52.760;6.726;2023-03-17T17:15:20;14.40;99.90
59007;DHT22;44792;52.760;6.726;2023-03-17T17:17:54;14.30;99.90
59007;DHT22;44792;52.760;6.726;2023-03-17T17:20:24;14.30;99.90
59007;DHT22;44792;52.760;6.726;2023-03-17T17:22:53;14.30;99.90
59007;DHT22;44792;52.760;6.726;2023-03-17T17:25:19;14.30;99.90
59007;DHT22;44792;52.760;6.726;2023-03-17T17:27:45;14.30;99.90
59007;DHT22;44792;52.760;6.726;2023-03-17T17:30:13;14.20;99.90